Time;durP1;ratioP1;P1;durP2;ratioP2;P2;SDS_P1;SDS_P2;PMS_P1;PMS_P2;Temp;Humidity;BMP_temperature;BMP_pressure;BME280_temperature;BME280_humidity;BME280_pressure;Samples;Min_cycle;Max_cycle;Signal;HPM_P1;HPM_P2
2023/04/10 00:01:04;;;;;;;38.83;27.63;;;8.50;99.90;;;;;;5035116;28;20386;-62
2023/04/10 00:03:31;;;;;;;38.65;27.65;;;8.50;99.90;;;;;;5033631;28;20048;-63
2023/04/10 00:05:57;;;;;;;37.05;26.13;;;8.40;99.90;;;;;;5052771;28;20478;-62
2023/04/10 00:08:24;;;;;;;37.60;27.17;;;8.40;99.90;;;;;;5034170;28;20068;-63
2023/04/10 00:10:50;;;;;;;36.38;27.35;;;8.40;99.90;;;;;;5034384;28;20048;-63
2023/04/10 00:13:16;;;;;;;34.75;25.83;;;8.30;99.90;;;;;;5027177;28;20132;-63
2023/04/10 00:15:42;;;;;;;36.45;27.50;;;8.30;99.90;;;;;;4998066;28;20037;-63
2023/04/10 00:18:08;;;;;;;36.83;26.15;;;8.30;99.90;;;;;;5032342;28;20099;-62
2023/04/10 00:20:33;;;;;;;39.72;28.10;;;8.20;99.90;;;;;;5014668;28;20486;-63
2023/04/10 00:22:59;;;;;;;41.00;29.08;;;8.20;99.90;;;;;;5032398;28;20075;-62
2023/04/10 00:25:25;;;;;;;41.45;28.90;;;8.20;99.90;;;;;;4997291;28;20479;-62
2023/04/10 00:27:54;;;;;;;38.20;27.17;;;8.20;99.90;;;;;;5032540;28;20044;-63
2023/04/10 00:30:20;;;;;;;33.63;27.40;;;8.10;99.90;;;;;;5031840;28;20423;-62
2023/04/10 00:32:46;;;;;;;36.63;27.50;;;8.10;99.90;;;;;;4997791;28;20094;-63
2023/04/10 00:35:11;;;;;;;39.55;29.95;;;8.10;99.90;;;;;;4998497;28;20049;-63
2023/04/10 00:37:37;;;;;;;42.92;30.08;;;8.00;99.90;;;;;;5014141;28;20037;-62
2023/04/10 00:40:05;;;;;;;39.42;28.13;;;8.00;99.90;;;;;;5014127;28;20553;-63
2023/04/10 00:42:31;;;;;;;35.78;28.08;;;8.00;99.90;;;;;;5031593;28;20041;-63
2023/04/10 00:44:57;;;;;;;39.58;28.80;;;8.00;99.90;;;;;;5031919;28;20045;-63
2023/04/10 00:47:23;;;;;;;37.17;28.88;;;8.00;99.90;;;;;;5013703;28;20044;-63
2023/04/10 00:49:49;;;;;;;40.55;30.00;;;7.90;99.90;;;;;;4998183;28;20045;-63
2023/04/10 00:52:14;;;;;;;39.33;29.80;;;7.90;99.90;;;;;;5013728;28;20482;-63
2023/04/10 00:54:40;;;;;;;40.90;30.15;;;7.90;99.90;;;;;;5031820;28;20049;-63
2023/04/10 00:57:06;;;;;;;41.72;31.50;;;7.90;99.90;;;;;;5014061;28;20048;-63
2023/04/10 00:59:32;;;;;;;36.60;28.55;;;7.80;99.90;;;;;;5013200;28;20045;-63
2023/04/10 01:01:58;;;;;;;46.38;31.80;;;7.80;99.90;;;;;;4998322;28;20513;-63
2023/04/10 01:04:25;;;;;;;40.80;28.75;;;7.80;99.90;;;;;;5013763;28;20041;-62
2023/04/10 01:07:20;;;;;;;39.47;28.98;;;7.80;99.90;;;;;;5013911;28;20394;-63
2023/04/10 01:10:24;;;;;;;40.78;29.42;;;7.80;99.90;;;;;;5014399;28;20096;-63
2023/04/10 01:13:05;;;;;;;39.92;30.73;;;7.70;99.90;;;;;;4989116;28;20103;-63
2023/04/10 01:15:41;;;;;;;40.47;30.17;;;7.80;99.90;;;;;;5000412;28;20037;-63
2023/04/10 01:18:28;;;;;;;39.88;28.55;;;7.80;99.90;;;;;;5018031;28;20049;-63
2023/04/10 01:20:55;;;;;;;35.03;28.38;;;7.70;99.90;;;;;;5017901;28;20045;-63
2023/04/10 01:23:23;;;;;;;39.33;31.10;;;7.70;99.90;;;;;;5034976;28;20038;-62
2023/04/10 01:26:02;;;;;;;39.90;30.80;;;7.70;99.90;;;;;;5018109;28;20041;-63
2023/04/10 01:28:51;;;;;;;46.33;31.17;;;7.70;99.90;;;;;;5034563;28;20371;-63
2023/04/10 01:31:29;;;;;;;42.13;32.60;;;7.70;99.90;;;;;;5018037;28;20038;-62
2023/04/10 01:34:04;;;;;;;38.88;30.17;;;7.60;99.90;;;;;;5001368;28;20045;-62
2023/04/10 01:36:36;;;;;;;39.97;30.52;;;7.60;99.90;;;;;;5034672;28;20067;-63
2023/04/10 01:39:04;;;;;;;39.67;31.83;;;7.60;99.90;;;;;;5035422;28;20081;-63
2023/04/10 01:41:31;;;;;;;40.55;30.38;;;7.50;99.90;;;;;;5000568;28;20379;-63
2023/04/10 01:43:58;;;;;;;41.58;31.23;;;7.50;99.90;;;;;;5035582;28;20037;-63
2023/04/10 01:46:26;;;;;;;42.08;30.13;;;7.50;99.90;;;;;;5016897;28;20045;-63
2023/04/10 01:48:54;;;;;;;44.35;30.67;;;7.50;99.90;;;;;;5035036;28;20056;-63
2023/04/10 01:51:21;;;;;;;42.42;31.23;;;7.40;99.90;;;;;;5034939;28;20048;-63
2023/04/10 01:53:47;;;;;;;42.25;31.25;;;7.40;99.90;;;;;;5035119;28;20037;-63
2023/04/10 01:56:14;;;;;;;39.67;30.95;;;7.40;99.90;;;;;;5018292;28;20064;-62
2023/04/10 01:58:40;;;;;;;42.58;31.02;;;7.40;99.90;;;;;;5017597;28;20041;-63
2023/04/10 02:01:06;;;;;;;38.88;30.75;;;7.40;99.90;;;;;;5017629;28;20049;-63
2023/04/10 02:03:32;;;;;;;45.03;30.23;;;7.40;99.90;;;;;;5033998;28;20536;-63
2023/04/10 02:06:17;;;;;;;40.80;29.90;;;7.40;99.90;;;;;;5017323;28;20077;-63
2023/04/10 02:08:56;;;;;;;44.45;32.75;;;7.40;99.90;;;;;;5034493;28;20057;-63
2023/04/10 02:11:43;;;;;;;43.05;31.17;;;7.40;99.90;;;;;;4999842;28;20037;-63
2023/04/10 02:14:15;;;;;;;40.53;30.77;;;7.40;99.90;;;;;;5017389;28;20041;-62
2023/04/10 02:16:42;;;;;;;41.33;30.65;;;7.30;99.90;;;;;;5016553;28;20045;-63
2023/04/10 02:19:09;;;;;;;42.88;32.70;;;7.30;99.90;;;;;;5017393;28;20509;-63
2023/04/10 02:21:36;;;;;;;45.92;33.30;;;7.30;99.90;;;;;;5016259;28;20132;-63
2023/04/10 02:24:02;;;;;;;43.17;31.10;;;7.30;99.90;;;;;;5016494;28;20037;-63
2023/04/10 02:26:28;;;;;;;45.63;32.03;;;7.30;99.90;;;;;;4999047;28;20041;-63
2023/04/10 02:28:54;;;;;;;41.38;31.17;;;7.30;99.90;;;;;;5039918;28;20440;-62
2023/04/10 02:31:19;;;;;;;43.97;31.80;;;7.30;99.90;;;;;;5053691;28;20448;-63
2023/04/10 02:33:50;;;;;;;40.75;32.47;;;7.20;99.90;;;;;;5036384;28;20106;-63
2023/04/10 02:36:16;;;;;;;42.20;32.00;;;7.20;99.90;;;;;;5019786;28;20041;-63
2023/04/10 02:38:42;;;;;;;42.75;31.20;;;7.20;99.90;;;;;;5053590;28;20120;-63
2023/04/10 02:41:07;;;;;;;38.13;32.30;;;7.20;99.90;;;;;;5054516;28;20041;-63
2023/04/10 02:43:33;;;;;;;40.08;31.10;;;7.20;99.90;;;;;;5053212;28;20120;-63
2023/04/10 02:45:58;;;;;;;42.22;33.05;;;7.20;99.90;;;;;;5035878;28;20036;-63
2023/04/10 02:48:24;;;;;;;40.85;31.42;;;7.20;99.90;;;;;;5019482;28;20086;-63
2023/04/10 02:50:56;;;;;;;44.70;33.72;;;7.20;99.90;;;;;;5053820;28;20115;-63
2023/04/10 02:53:22;;;;;;;45.65;31.98;;;7.20;99.90;;;;;;5052781;28;20045;-63
2023/04/10 02:55:47;;;;;;;45.85;33.65;;;7.20;99.90;;;;;;5054269;28;20033;-63
2023/04/10 02:58:13;;;;;;;44.10;35.40;;;7.20;99.90;;;;;;5036257;28;20036;-63
2023/04/10 03:00:38;;;;;;;48.80;36.65;;;7.20;99.90;;;;;;5053037;28;20032;-62
2023/04/10 03:03:04;;;;;;;47.65;35.60;;;7.10;99.90;;;;;;5037447;28;20044;-63
2023/04/10 03:05:30;;;;;;;42.33;33.13;;;7.10;99.90;;;;;;4999279;28;20554;-63
2023/04/10 03:07:55;;;;;;;44.88;33.60;;;7.10;99.90;;;;;;4999543;28;20057;-63
2023/04/10 03:10:21;;;;;;;46.08;33.63;;;7.10;99.90;;;;;;5033285;28;20498;-63
2023/04/10 03:12:47;;;;;;;44.35;33.60;;;7.10;99.90;;;;;;5015442;28;20195;-63
2023/04/10 03:15:13;;;;;;;48.58;33.58;;;7.10;99.90;;;;;;5016515;28;20041;-63
2023/04/10 03:17:38;;;;;;;45.58;33.92;;;7.10;99.90;;;;;;5033201;28;20542;-63
2023/04/10 03:20:05;;;;;;;43.35;34.08;;;7.00;99.90;;;;;;5015813;28;20856;-63
2023/04/10 03:22:31;;;;;;;48.45;34.78;;;7.00;99.90;;;;;;5015427;28;20049;-63
2023/04/10 03:24:57;;;;;;;49.67;36.90;;;7.00;99.90;;;;;;5033362;28;20495;-63
2023/04/10 03:27:23;;;;;;;47.10;35.97;;;7.00;99.90;;;;;;5014747;28;20125;-63
2023/04/10 03:29:49;;;;;;;46.78;37.05;;;6.90;99.90;;;;;;4999567;28;20033;-63
2023/04/10 03:32:14;;;;;;;49.80;36.60;;;6.90;99.90;;;;;;5033312;28;20045;-63
2023/04/10 03:34:40;;;;;;;47.65;36.95;;;6.90;99.90;;;;;;5015025;28;20041;-62
2023/04/10 03:37:06;;;;;;;46.40;34.47;;;6.90;99.90;;;;;;5033214;28;20168;-62
2023/04/10 03:39:32;;;;;;;49.45;37.40;;;6.90;99.90;;;;;;5032561;28;20048;-63
2023/04/10 03:41:57;;;;;;;48.53;36.88;;;6.90;99.90;;;;;;5019969;28;20048;-63
2023/04/10 03:44:23;;;;;;;49.28;35.28;;;6.80;99.90;;;;;;5052814;28;20037;-62
2023/04/10 03:46:49;;;;;;;51.10;37.80;;;6.80;99.90;;;;;;5035086;28;20044;-62
2023/04/10 03:49:15;;;;;;;47.75;35.35;;;6.80;99.90;;;;;;5034455;28;20060;-63
2023/04/10 03:51:40;;;;;;;47.80;36.83;;;6.80;99.90;;;;;;5052438;28;20425;-63
2023/04/10 03:54:06;;;;;;;44.83;35.53;;;6.80;99.90;;;;;;5035143;28;20190;-63
2023/04/10 03:56:32;;;;;;;45.75;34.65;;;6.70;99.90;;;;;;5033980;28;20037;-63
2023/04/10 03:58:57;;;;;;;47.10;35.20;;;6.70;99.90;;;;;;5035274;28;20033;-63
2023/04/10 04:01:23;;;;;;;46.10;35.67;;;6.70;99.90;;;;;;5033548;28;20037;-62
2023/04/10 04:03:49;;;;;;;45.85;34.70;;;6.70;99.90;;;;;;5018062;28;20033;-62
2023/04/10 04:06:14;;;;;;;47.70;36.60;;;6.70;99.90;;;;;;5034809;28;20036;-63
2023/04/10 04:08:40;;;;;;;44.65;35.95;;;6.70;99.90;;;;;;5034322;28;20195;-63
2023/04/10 04:11:06;;;;;;;48.17;34.35;;;6.70;99.90;;;;;;5034435;28;20041;-63
2023/04/10 04:13:31;;;;;;;50.38;35.70;;;6.70;99.90;;;;;;5017292;28;20436;-63
2023/04/10 04:15:57;;;;;;;55.88;36.95;;;6.70;99.90;;;;;;5018436;28;20041;-62
2023/04/10 04:18:22;;;;;;;47.28;35.38;;;6.70;99.90;;;;;;5033285;28;20409;-62
2023/04/10 04:20:48;;;;;;;44.33;33.50;;;6.70;99.90;;;;;;5052398;28;20195;-62
2023/04/10 04:23:14;;;;;;;43.95;33.65;;;6.70;99.90;;;;;;5033949;28;20037;-63
2023/04/10 04:25:40;;;;;;;46.03;33.60;;;6.70;99.90;;;;;;5034154;28;20059;-62
2023/04/10 04:28:05;;;;;;;46.13;35.33;;;6.80;99.90;;;;;;5034111;28;20045;-62
2023/04/10 04:30:31;;;;;;;42.30;32.83;;;6.80;99.90;;;;;;5051218;28;20421;-63
2023/04/10 04:32:56;;;;;;;43.00;31.95;;;6.80;99.90;;;;;;5025414;28;20038;-63
2023/04/10 04:35:22;;;;;;;44.45;32.45;;;6.80;99.90;;;;;;5013956;28;20121;-63
2023/04/10 04:37:48;;;;;;;44.85;32.38;;;6.80;99.90;;;;;;5014232;28;20044;-64
2023/04/10 04:40:13;;;;;;;42.33;30.92;;;6.80;99.90;;;;;;5032298;28;20479;-63
2023/04/10 04:42:39;;;;;;;41.53;31.25;;;6.80;99.90;;;;;;5013864;28;20037;-63
2023/04/10 04:45:05;;;;;;;39.20;31.85;;;6.90;99.90;;;;;;5014350;28;20490;-62
2023/04/10 04:47:31;;;;;;;40.63;31.25;;;6.90;99.90;;;;;;5013860;28;20087;-62
2023/04/10 04:49:57;;;;;;;39.53;31.10;;;6.90;99.90;;;;;;5013645;28;20033;-63
2023/04/10 04:52:22;;;;;;;40.22;29.45;;;7.00;99.90;;;;;;5013466;28;20037;-63
2023/04/10 04:54:48;;;;;;;40.15;29.38;;;7.00;99.90;;;;;;4998169;28;20038;-62
2023/04/10 04:57:14;;;;;;;39.50;29.70;;;7.00;99.90;;;;;;5014273;28;20049;-63
2023/04/10 04:59:39;;;;;;;36.83;28.00;;;7.10;99.90;;;;;;5013774;28;20053;-62
2023/04/10 05:02:05;;;;;;;38.00;29.63;;;7.10;99.90;;;;;;5014393;28;20410;-63
2023/04/10 05:04:31;;;;;;;41.08;30.95;;;7.10;99.90;;;;;;5031333;28;20097;-62
2023/04/10 05:06:57;;;;;;;36.03;27.10;;;7.10;99.90;;;;;;5031461;28;20486;-63
2023/04/10 05:09:22;;;;;;;36.95;27.77;;;7.10;99.90;;;;;;5031379;28;20053;-62
2023/04/10 05:11:50;;;;;;;39.22;29.15;;;7.10;99.90;;;;;;5032001;28;20069;-63
2023/04/10 05:14:15;;;;;;;42.58;28.02;;;7.10;99.90;;;;;;5031396;28;20453;-63
2023/04/10 05:16:41;;;;;;;40.38;28.75;;;7.10;99.90;;;;;;5031490;28;20120;-63
2023/04/10 05:19:07;;;;;;;34.75;28.40;;;7.10;99.90;;;;;;5032032;28;20034;-63
2023/04/10 05:21:32;;;;;;;36.40;29.20;;;7.10;99.90;;;;;;5013048;28;20039;-62
2023/04/10 05:23:58;;;;;;;39.35;27.45;;;7.20;99.90;;;;;;5014228;28;20041;-62
2023/04/10 05:26:23;;;;;;;33.13;27.00;;;7.10;99.90;;;;;;5013387;28;20390;-63
2023/04/10 05:28:49;;;;;;;35.47;25.17;;;7.20;99.90;;;;;;5032063;28;20406;-63
2023/04/10 05:31:15;;;;;;;39.97;28.48;;;7.20;99.90;;;;;;5013682;28;20038;-63
2023/04/10 05:33:40;;;;;;;39.60;29.02;;;7.20;99.90;;;;;;4996873;28;20085;-63
2023/04/10 05:36:06;;;;;;;36.05;27.48;;;7.20;99.90;;;;;;5014260;28;20128;-63
2023/04/10 05:38:32;;;;;;;34.70;26.55;;;7.20;99.90;;;;;;5030948;28;20080;-63
2023/04/10 05:40:57;;;;;;;41.80;28.23;;;7.20;99.90;;;;;;5031520;28;20136;-62
2023/04/10 05:43:23;;;;;;;38.10;27.50;;;7.30;99.90;;;;;;5030944;28;20042;-63
2023/04/10 05:45:49;;;;;;;35.38;26.15;;;7.30;99.90;;;;;;4997721;28;20037;-63
2023/04/10 05:48:14;;;;;;;30.35;23.38;;;7.40;99.90;;;;;;4996985;28;20042;-63
2023/04/10 05:50:40;;;;;;;33.60;23.80;;;7.40;99.90;;;;;;5031384;28;20041;-63
2023/04/10 05:53:05;;;;;;;35.60;25.38;;;7.40;99.90;;;;;;5013698;28;20108;-63
2023/04/10 05:55:31;;;;;;;34.15;25.67;;;7.40;99.90;;;;;;5012838;28;20076;-62
2023/04/10 05:57:57;;;;;;;30.88;23.40;;;7.50;99.90;;;;;;4997613;28;20183;-63
2023/04/10 06:00:23;;;;;;;33.22;23.83;;;7.50;99.90;;;;;;5031898;28;20045;-63
2023/04/10 06:02:48;;;;;;;31.63;24.35;;;7.50;99.90;;;;;;5034864;28;20025;-63
2023/04/10 06:05:14;;;;;;;33.42;25.20;;;7.60;99.90;;;;;;5001458;28;20131;-63
2023/04/10 06:07:40;;;;;;;32.40;23.70;;;7.60;99.90;;;;;;5000345;28;20589;-62
2023/04/10 06:10:06;;;;;;;35.15;23.60;;;7.70;99.90;;;;;;5016939;28;20037;-63
2023/04/10 06:12:32;;;;;;;33.28;23.48;;;7.70;99.90;;;;;;5017001;28;20068;-63
2023/04/10 06:14:57;;;;;;;30.17;22.38;;;7.70;99.90;;;;;;5034738;28;20115;-63
2023/04/10 06:17:24;;;;;;;29.45;21.27;;;7.80;99.90;;;;;;5019228;28;20064;-62
2023/04/10 06:19:50;;;;;;;31.40;23.27;;;7.90;99.90;;;;;;5019521;28;20048;-62
2023/04/10 06:22:16;;;;;;;26.60;21.58;;;8.00;99.90;;;;;;5019800;28;20044;-63
2023/04/10 06:24:42;;;;;;;28.73;20.90;;;8.00;99.90;;;;;;5019672;28;20041;-62
2023/04/10 06:27:08;;;;;;;26.58;19.55;;;8.10;99.90;;;;;;5015971;28;20064;-63
2023/04/10 06:29:33;;;;;;;27.70;20.60;;;8.20;99.90;;;;;;5049771;28;20401;-73
2023/04/10 06:31:59;;;;;;;24.42;17.90;;;8.30;99.90;;;;;;5045377;28;20033;-63
2023/04/10 06:34:26;;;;;;;27.55;20.52;;;8.30;99.90;;;;;;5042071;28;20371;-63
2023/04/10 06:36:51;;;;;;;24.42;17.35;;;8.40;99.90;;;;;;5048703;28;20038;-63
2023/04/10 06:39:18;;;;;;;26.08;18.05;;;8.60;99.90;;;;;;5014357;28;20099;-63
2023/04/10 06:41:44;;;;;;;24.38;18.52;;;8.60;99.90;;;;;;5040057;28;20033;-64
2023/04/10 06:44:09;;;;;;;22.13;16.77;;;8.70;99.90;;;;;;5033945;28;20041;-63
2023/04/10 06:46:35;;;;;;;24.38;17.17;;;8.70;99.90;;;;;;5017018;28;20232;-63
2023/04/10 06:49:01;;;;;;;21.90;15.52;;;8.80;99.90;;;;;;5033175;28;20045;-63
2023/04/10 06:51:26;;;;;;;21.48;15.88;;;8.80;99.90;;;;;;5023893;28;20056;-63
2023/04/10 06:53:52;;;;;;;21.23;16.05;;;8.90;99.90;;;;;;5047439;28;20363;-63
2023/04/10 06:56:18;;;;;;;21.23;16.42;;;9.00;99.90;;;;;;5041469;28;20490;-63
2023/04/10 06:58:44;;;;;;;18.48;14.70;;;9.10;99.90;;;;;;5023627;28;20107;-63
2023/04/10 07:01:09;;;;;;;21.73;15.13;;;9.20;99.90;;;;;;5050082;28;20474;-63
2023/04/10 07:03:35;;;;;;;19.73;15.23;;;9.30;99.90;;;;;;5032216;28;20045;-63
2023/04/10 07:06:02;;;;;;;21.77;14.63;;;9.40;99.90;;;;;;5016021;28;20041;-63
2023/04/10 07:08:27;;;;;;;23.42;17.08;;;9.50;99.90;;;;;;5049885;28;20379;-63
2023/04/10 07:10:53;;;;;;;23.60;15.90;;;9.70;99.90;;;;;;5048032;28;20056;-62
2023/04/10 07:13:19;;;;;;;19.80;15.07;;;9.80;99.90;;;;;;5017820;28;20102;-63
2023/04/10 07:15:44;;;;;;;18.92;13.13;;;9.90;99.90;;;;;;5015680;28;20041;-63
2023/04/10 07:18:10;;;;;;;19.50;15.20;;;10.00;99.90;;;;;;5018279;28;20098;-62
2023/04/10 07:20:36;;;;;;;22.35;15.95;;;10.10;99.90;;;;;;5024185;28;20612;-63
2023/04/10 07:23:01;;;;;;;19.85;13.80;;;10.20;99.90;;;;;;5031920;28;20428;-63
2023/04/10 07:25:27;;;;;;;20.10;14.02;;;10.30;99.90;;;;;;5015828;28;20037;-63
2023/04/10 07:27:52;;;;;;;19.35;14.98;;;10.50;99.90;;;;;;5027871;28;20033;-63
2023/04/10 07:30:19;;;;;;;19.85;13.85;;;10.60;99.90;;;;;;5027007;28;20044;-63
2023/04/10 07:32:45;;;;;;;19.70;13.88;;;10.70;99.90;;;;;;5031973;28;20049;-63
2023/04/10 07:35:11;;;;;;;20.13;14.10;;;10.80;99.90;;;;;;5046185;28;20048;-63
2023/04/10 07:37:38;;;;;;;17.73;13.73;;;10.90;99.90;;;;;;5013674;28;20052;-63
2023/04/10 07:40:06;;;;;;;19.17;14.13;;;11.00;99.90;;;;;;5028643;28;20068;-63
2023/04/10 07:42:31;;;;;;;18.75;13.75;;;11.00;99.90;;;;;;5016486;28;20042;-63
2023/04/10 07:44:57;;;;;;;18.50;13.65;;;11.10;99.90;;;;;;5021597;28;20042;-63
2023/04/10 07:47:23;;;;;;;20.02;14.68;;;11.10;99.90;;;;;;5020569;28;20124;-63
2023/04/10 07:49:48;;;;;;;18.05;13.07;;;11.10;99.90;;;;;;5018242;28;20052;-63
2023/04/10 07:52:14;;;;;;;17.58;13.57;;;11.10;99.90;;;;;;5046776;28;20125;-63
2023/04/10 07:54:40;;;;;;;22.50;13.73;;;11.10;99.90;;;;;;5027326;28;20045;-63
2023/04/10 07:57:05;;;;;;;18.98;13.32;;;11.20;99.90;;;;;;5014511;28;20056;-63
2023/04/10 07:59:31;;;;;;;19.00;13.40;;;11.30;99.90;;;;;;5025201;28;20465;-63
2023/04/10 08:01:56;;;;;;;17.50;13.82;;;11.40;99.90;;;;;;5023769;28;20048;-63
2023/04/10 08:04:22;;;;;;;17.38;13.95;;;11.60;99.90;;;;;;5031447;28;20037;-63
2023/04/10 08:06:48;;;;;;;18.95;13.05;;;11.70;99.90;;;;;;5007211;28;20048;-63
2023/04/10 08:09:14;;;;;;;17.50;13.15;;;11.80;99.90;;;;;;5022619;28;20059;-63
2023/04/10 08:11:40;;;;;;;16.40;11.93;;;11.90;99.90;;;;;;5031433;28;20037;-63
2023/04/10 08:14:05;;;;;;;19.05;13.50;;;12.00;99.90;;;;;;5031722;28;20037;-63
2023/04/10 08:16:33;;;;;;;17.73;13.27;;;12.00;99.90;;;;;;5014626;28;20052;-63
2023/04/10 08:19:00;;;;;;;16.50;12.60;;;12.20;99.90;;;;;;5041431;28;20041;-63
2023/04/10 08:21:27;;;;;;;18.83;13.15;;;12.30;99.90;;;;;;4998197;28;20041;-63
2023/04/10 08:23:54;;;;;;;17.27;11.88;;;12.30;99.90;;;;;;5019971;28;20049;-63
2023/04/10 08:26:20;;;;;;;15.93;11.80;;;12.40;99.90;;;;;;5031665;28;20509;-62
2023/04/10 08:28:50;;;;;;;16.63;12.68;;;12.40;99.90;;;;;;5019420;28;20049;-63
2023/04/10 08:31:20;;;;;;;16.73;11.18;;;12.40;99.90;;;;;;5009814;28;20049;-62
2023/04/10 08:33:46;;;;;;;17.60;12.15;;;12.50;99.90;;;;;;5031930;28;20083;-63
2023/04/10 08:36:14;;;;;;;16.73;11.68;;;12.60;99.90;;;;;;5032074;28;20409;-63
2023/04/10 08:38:41;;;;;;;18.45;13.50;;;12.60;99.90;;;;;;5049363;28;20040;-74
2023/04/10 08:41:10;;;;;;;19.08;13.20;;;12.70;99.90;;;;;;5049825;28;20076;-73
2023/04/10 08:43:35;;;;;;;17.33;13.23;;;12.70;99.90;;;;;;5031116;28;20182;-74
2023/04/10 08:46:01;;;;;;;17.15;12.85;;;12.80;99.90;;;;;;5048317;28;20116;-74
2023/04/10 08:48:34;;;;;;;17.23;12.63;;;12.80;99.90;;;;;;5031701;28;20041;-75
2023/04/10 08:51:03;;;;;;;17.52;13.10;;;12.90;99.90;;;;;;5046371;28;20025;-74
2023/04/10 08:53:30;;;;;;;18.10;13.50;;;12.90;99.90;;;;;;5029855;28;20140;-73
2023/04/10 08:55:58;;;;;;;17.30;13.52;;;13.00;99.90;;;;;;5013343;28;20047;-74
2023/04/10 08:58:24;;;;;;;16.65;12.35;;;13.10;99.90;;;;;;5030959;28;20052;-74
2023/04/10 09:00:50;;;;;;;15.70;12.48;;;13.10;99.90;;;;;;5031231;28;20040;-73
2023/04/10 09:03:16;;;;;;;16.13;12.27;;;13.20;99.90;;;;;;5049009;28;20402;-74
2023/04/10 09:05:42;;;;;;;17.88;12.32;;;13.20;99.90;;;;;;5030882;28;20128;-74
2023/04/10 09:08:09;;;;;;;15.75;12.10;;;13.20;99.90;;;;;;5019542;28;20264;-73
2023/04/10 09:10:35;;;;;;;15.45;11.52;;;13.20;99.90;;;;;;5028991;28;20045;-74
2023/04/10 09:13:01;;;;;;;15.80;11.98;;;13.20;99.90;;;;;;4994823;28;20049;-74
2023/04/10 09:15:26;;;;;;;15.57;12.43;;;13.20;99.80;;;;;;5028408;28;20482;-73
2023/04/10 09:17:59;;;;;;;15.63;11.73;;;13.20;99.70;;;;;;4995624;28;20124;-73
2023/04/10 09:20:28;;;;;;;15.10;11.77;;;13.30;99.50;;;;;;5011068;28;20406;-75
2023/04/10 09:23:20;;;;;;;14.98;11.23;;;13.30;99.30;;;;;;4988342;28;20080;-75
2023/04/10 09:25:45;;;;;;;14.65;10.48;;;13.40;99.60;;;;;;5002108;28;20136;-75
2023/04/10 09:28:11;;;;;;;14.35;11.65;;;13.40;99.60;;;;;;4995300;28;20041;-75
2023/04/10 09:30:39;;;;;;;15.48;11.90;;;13.40;99.50;;;;;;5027191;28;20045;-75
2023/04/10 09:33:34;;;;;;;14.38;10.80;;;13.50;99.40;;;;;;5027358;28;20124;-75
2023/04/10 09:36:00;;;;;;;12.90;9.40;;;13.50;98.70;;;;;;5006824;28;20501;-75
2023/04/10 09:38:25;;;;;;;12.60;9.52;;;13.50;98.90;;;;;;5029934;28;20045;-73
2023/04/10 09:40:51;;;;;;;16.80;10.27;;;13.50;98.50;;;;;;5001524;28;20091;-73
2023/04/10 09:43:26;;;;;;;11.88;9.60;;;13.60;98.10;;;;;;5015867;28;20049;-77
2023/04/10 09:45:55;;;;;;;14.32;10.25;;;13.60;98.10;;;;;;5001610;28;20034;-76
2023/04/10 09:48:22;;;;;;;13.10;9.52;;;13.70;98.10;;;;;;5034405;28;20037;-75
2023/04/10 09:50:47;;;;;;;12.70;10.35;;;13.80;98.30;;;;;;5000072;28;20371;-76
2023/04/10 09:53:15;;;;;;;14.55;9.95;;;13.90;98.30;;;;;;5017732;28;20079;-78
2023/04/10 09:55:42;;;;;;;12.77;9.32;;;14.10;97.40;;;;;;4987236;28;20060;-82
2023/04/10 09:58:09;;;;;;;12.60;8.70;;;14.10;97.00;;;;;;5016008;28;20045;-70
2023/04/10 10:00:39;;;;;;;14.27;10.32;;;14.10;97.10;;;;;;5011544;28;20048;-74
2023/04/10 10:03:08;;;;;;;13.38;9.80;;;14.10;96.80;;;;;;5017562;28;20037;-73
2023/04/10 10:05:36;;;;;;;12.35;9.00;;;14.10;96.80;;;;;;4997119;28;20121;-72
2023/04/10 10:08:03;;;;;;;14.38;10.25;;;14.10;96.40;;;;;;4997132;28;20076;-72
2023/04/10 10:10:29;;;;;;;11.80;9.02;;;14.00;96.60;;;;;;4997429;28;20232;-72
2023/04/10 10:12:59;;;;;;;13.40;9.63;;;14.00;96.50;;;;;;5015325;28;20169;-73
2023/04/10 10:15:46;;;;;;;12.32;8.32;;;13.90;95.80;;;;;;5014671;28;20048;-72
2023/04/10 10:18:31;;;;;;;12.38;8.90;;;14.00;95.30;;;;;;4997764;28;20388;-73
2023/04/10 10:20:57;;;;;;;12.70;9.00;;;13.90;95.40;;;;;;5015274;28;20046;-73
2023/04/10 10:23:24;;;;;;;11.60;8.55;;;13.90;95.60;;;;;;4996399;28;20042;-73
2023/04/10 10:25:53;;;;;;;12.05;8.43;;;13.90;95.50;;;;;;4997376;28;20034;-72
2023/04/10 10:28:20;;;;;;;13.05;9.50;;;13.90;95.30;;;;;;4997250;28;20040;-73
2023/04/10 10:30:50;;;;;;;13.25;9.23;;;13.90;95.70;;;;;;4980670;28;20049;-73
2023/04/10 10:33:17;;;;;;;11.57;8.70;;;14.00;95.20;;;;;;4980922;28;20203;-73
2023/04/10 10:35:43;;;;;;;12.07;9.07;;;14.00;95.40;;;;;;4980775;28;20048;-73
2023/04/10 10:38:09;;;;;;;11.90;9.07;;;14.00;95.40;;;;;;4996743;28;20050;-72
2023/04/10 10:40:49;;;;;;;12.02;9.18;;;14.10;95.00;;;;;;4996352;28;20621;-72
2023/04/10 10:43:36;;;;;;;12.32;8.80;;;14.10;94.90;;;;;;4996316;28;20487;-73
2023/04/10 10:46:36;;;;;;;13.02;9.27;;;14.10;95.30;;;;;;4980836;28;20081;-73
2023/04/10 10:49:02;;;;;;;11.38;8.65;;;14.20;95.00;;;;;;5014498;28;20042;-73
2023/04/10 10:51:50;;;;;;;14.77;10.13;;;14.30;95.20;;;;;;4995811;28;20195;-73
2023/04/10 10:54:34;;;;;;;13.48;9.07;;;14.30;95.20;;;;;;4996520;28;20049;-73
2023/04/10 10:57:01;;;;;;;11.05;8.63;;;14.30;94.00;;;;;;4996341;28;20054;-73
2023/04/10 10:59:42;;;;;;;11.75;8.73;;;14.30;94.50;;;;;;4996278;28;20050;-73
2023/04/10 11:02:18;;;;;;;11.93;8.82;;;14.40;94.60;;;;;;4996629;28;20038;-73
2023/04/10 11:04:48;;;;;;;13.00;8.95;;;14.30;94.60;;;;;;4979670;28;20038;-73
2023/04/10 11:07:15;;;;;;;14.75;9.35;;;14.30;94.40;;;;;;4996822;28;20068;-73
2023/04/10 11:09:48;;;;;;;11.35;8.43;;;14.30;94.60;;;;;;4979999;28;20133;-73
2023/04/10 11:12:15;;;;;;;11.35;9.02;;;14.40;94.40;;;;;;4996506;28;20042;-73
2023/04/10 11:14:42;;;;;;;13.32;9.07;;;14.30;94.30;;;;;;4996321;28;20350;-72
2023/04/10 11:17:09;;;;;;;12.57;9.50;;;14.30;94.30;;;;;;5014310;28;20120;-72
2023/04/10 11:20:01;;;;;;;12.20;8.68;;;14.30;94.40;;;;;;4979497;28;20371;-72
2023/04/10 11:22:27;;;;;;;12.15;8.88;;;14.30;93.60;;;;;;4995781;28;20402;-73
2023/04/10 11:24:56;;;;;;;11.98;8.90;;;14.30;94.30;;;;;;4996729;28;20426;-72
2023/04/10 11:27:43;;;;;;;12.52;7.53;;;14.30;94.30;;;;;;5012866;28;20041;-72
2023/04/10 11:30:28;;;;;;;13.32;8.68;;;14.40;94.00;;;;;;5013902;28;20114;-72
2023/04/10 11:32:54;;;;;;;14.60;8.85;;;14.60;94.20;;;;;;4995671;28;20107;-72
2023/04/10 11:35:20;;;;;;;11.98;7.80;;;14.70;94.00;;;;;;4995807;28;20096;-72
2023/04/10 11:37:46;;;;;;;11.57;8.52;;;14.80;93.50;;;;;;4996006;28;20046;-71
2023/04/10 11:40:12;;;;;;;11.20;8.30;;;14.80;93.30;;;;;;5013307;28;20042;-71
2023/04/10 11:42:38;;;;;;;12.23;8.75;;;14.90;93.20;;;;;;4995230;28;20121;-72
2023/04/10 11:45:24;;;;;;;10.32;8.13;;;15.00;92.70;;;;;;4996407;28;20054;-72
2023/04/10 11:47:53;;;;;;;10.40;7.72;;;15.20;92.30;;;;;;4995483;28;20052;-72
2023/04/10 11:50:20;;;;;;;10.98;7.85;;;15.20;92.50;;;;;;4995593;28;20034;-72
2023/04/10 11:52:48;;;;;;;13.30;9.38;;;15.30;92.20;;;;;;4996174;28;20499;-72
2023/04/10 11:55:15;;;;;;;19.88;12.75;;;15.40;92.40;;;;;;5012884;28;20545;-72
2023/04/10 11:57:41;;;;;;;22.00;11.73;;;15.50;91.80;;;;;;4978790;28;20053;-72
2023/04/10 12:00:07;;;;;;;22.73;14.30;;;15.50;90.90;;;;;;4995695;28;20407;-72
2023/04/10 12:02:33;;;;;;;20.50;14.38;;;15.50;91.40;;;;;;4994563;28;20461;-72
2023/04/10 12:04:59;;;;;;;15.73;9.98;;;15.50;91.90;;;;;;4995436;28;20049;-72
2023/04/10 12:07:28;;;;;;;12.35;8.32;;;15.50;91.40;;;;;;5000224;28;20406;-72
2023/04/10 12:09:57;;;;;;;10.82;7.53;;;15.50;90.60;;;;;;5032951;28;20063;-72
2023/04/10 12:12:35;;;;;;;11.13;8.63;;;15.40;90.90;;;;;;5031908;28;20418;-71
2023/04/10 12:15:02;;;;;;;11.93;8.35;;;15.30;91.00;;;;;;5014833;28;20064;-71
2023/04/10 12:17:28;;;;;;;9.82;7.65;;;15.30;91.40;;;;;;5014796;28;20501;-71
2023/04/10 12:19:54;;;;;;;11.40;6.95;;;15.30;91.50;;;;;;4998643;28;20046;-72
2023/04/10 12:22:20;;;;;;;9.27;7.07;;;15.30;91.30;;;;;;5031644;28;20155;-72
2023/04/10 12:24:51;;;;;;;9.82;7.07;;;15.20;91.50;;;;;;5014667;28;20042;-72
2023/04/10 12:27:17;;;;;;;9.25;6.53;;;15.30;91.90;;;;;;5014754;28;20083;-72
2023/04/10 12:29:44;;;;;;;8.63;6.10;;;15.20;92.20;;;;;;5014171;28;20033;-72
2023/04/10 12:32:10;;;;;;;9.60;6.63;;;15.30;92.20;;;;;;5032433;28;20048;-72
2023/04/10 12:34:36;;;;;;;9.23;6.97;;;15.20;91.90;;;;;;5031942;28;20041;-72
2023/04/10 12:37:02;;;;;;;9.90;6.28;;;15.20;92.10;;;;;;5014242;28;20486;-72
2023/04/10 12:39:28;;;;;;;8.73;6.18;;;15.20;92.10;;;;;;5013754;28;20051;-72